Time;durP1;ratioP1;P1;durP2;ratioP2;P2;SDS_P1;SDS_P2;PMS_P1;PMS_P2;Temp;Humidity;BMP_temperature;BMP_pressure;BME280_temperature;BME280_humidity;BME280_pressure;Samples;Min_cycle;Max_cycle;Signal;HPM_P1;HPM_P2
2022/03/05 00:00:20;;;;;;;25.67;10.60;;;;;;;-0.08;81.79;101945.94;5051553;28;20076;-74
2022/03/05 00:02:46;;;;;;;29.85;14.10;;;;;;;-0.14;82.43;101935.00;5068255;28;20040;-74
2022/03/05 00:05:13;;;;;;;28.88;14.00;;;;;;;-0.12;82.47;101944.44;5069461;28;20048;-74
2022/03/05 00:07:39;;;;;;;32.67;15.48;;;;;;;-0.12;82.15;101949.69;5051689;28;20373;-75
2022/03/05 00:10:05;;;;;;;32.33;12.77;;;;;;;-0.13;82.64;101952.41;5068037;28;20101;-75
2022/03/05 00:12:30;;;;;;;28.98;13.15;;;;;;;-0.19;82.63;101948.41;5069182;28;20029;-75
2022/03/05 00:14:56;;;;;;;29.42;12.88;;;;;;;-0.22;82.65;101948.59;5069299;28;20044;-75
2022/03/05 00:17:22;;;;;;;35.25;13.35;;;;;;;-0.27;82.64;101948.88;5069314;28;20147;-75
2022/03/05 00:19:48;;;;;;;28.23;12.95;;;;;;;-0.33;82.55;101940.59;5069399;28;20484;-75
2022/03/05 00:22:13;;;;;;;31.58;14.52;;;;;;;-0.29;83.14;101952.53;5067893;28;20039;-75
2022/03/05 00:24:38;;;;;;;34.40;16.98;;;;;;;-0.33;83.65;101954.53;5069017;28;20040;-75
2022/03/05 00:27:08;;;;;;;32.33;13.23;;;;;;;-0.45;83.93;101943.06;5069157;28;20036;-75
2022/03/05 00:29:33;;;;;;;30.88;12.95;;;;;;;-0.38;83.95;101959.22;5072739;28;20024;-75
2022/03/05 00:31:59;;;;;;;31.98;13.27;;;;;;;-0.41;83.51;101955.97;5073161;28;20056;-75
2022/03/05 00:34:24;;;;;;;31.73;15.45;;;;;;;-0.46;83.60;101957.09;5071521;28;20590;-75
2022/03/05 00:36:50;;;;;;;28.48;11.57;;;;;;;-0.52;84.26;101954.03;5072565;28;20427;-75
2022/03/05 00:39:16;;;;;;;33.05;14.10;;;;;;;-0.50;84.02;101962.63;5072878;28;20082;-75
2022/03/05 00:41:42;;;;;;;34.42;15.23;;;;;;;-0.54;84.96;101961.16;5072653;28;20024;-75
2022/03/05 00:44:07;;;;;;;30.33;14.07;;;;;;;-0.57;84.84;101953.50;5072832;28;20039;-75
2022/03/05 00:46:33;;;;;;;32.28;13.85;;;;;;;-0.66;84.69;101949.66;5071257;28;20116;-75
2022/03/05 00:48:58;;;;;;;35.25;16.40;;;;;;;-0.65;85.18;101947.91;5072222;28;20480;-75
2022/03/05 00:51:24;;;;;;;35.95;14.57;;;;;;;-0.64;84.91;101953.03;5072619;28;20036;-75
2022/03/05 00:53:49;;;;;;;32.15;14.68;;;;;;;-0.66;84.72;101954.88;5054585;28;20090;-75
2022/03/05 00:56:15;;;;;;;39.33;13.77;;;;;;;-0.70;85.13;101956.03;5072731;28;20028;-74
2022/03/05 00:58:40;;;;;;;31.08;12.65;;;;;;;-0.74;85.22;101952.75;5072398;28;20032;-74
2022/03/05 01:01:06;;;;;;;39.45;15.30;;;;;;;-0.77;85.11;101945.09;5072396;28;20024;-74
2022/03/05 01:03:31;;;;;;;34.00;15.20;;;;;;;-0.81;85.54;101940.13;5071898;28;20028;-74
2022/03/05 01:05:57;;;;;;;34.00;14.10;;;;;;;-0.83;84.96;101932.38;5072117;28;20039;-74
2022/03/05 01:08:22;;;;;;;33.80;13.77;;;;;;;-0.82;85.71;101943.69;5072179;28;20058;-74
2022/03/05 01:10:48;;;;;;;31.52;13.90;;;;;;;-0.89;85.16;101944.09;5071069;28;20036;-74
2022/03/05 01:13:13;;;;;;;28.45;12.00;;;;;;;-0.91;85.77;101934.66;5054111;28;20527;-74
2022/03/05 01:15:39;;;;;;;33.97;16.90;;;;;;;-0.91;85.67;101945.97;5071746;28;20036;-74
2022/03/05 01:18:04;;;;;;;27.52;13.05;;;;;;;-0.92;85.83;101951.28;5071594;28;20040;-74
2022/03/05 01:20:30;;;;;;;31.08;14.82;;;;;;;-0.97;86.49;101943.72;5071830;28;20128;-74
2022/03/05 01:22:55;;;;;;;38.33;14.18;;;;;;;-0.96;86.36;101952.41;5071248;28;20032;-74
2022/03/05 01:25:21;;;;;;;31.75;16.17;;;;;;;-0.98;86.16;101946.44;5070152;28;20036;-75
2022/03/05 01:27:46;;;;;;;34.50;15.73;;;;;;;-1.03;86.54;101940.63;5071724;28;20044;-74
2022/03/05 01:30:12;;;;;;;29.95;13.48;;;;;;;-1.08;86.14;101937.44;5071731;28;20361;-74
2022/03/05 01:32:38;;;;;;;34.80;15.48;;;;;;;-1.12;86.91;101942.03;5071463;28;20396;-74
2022/03/05 01:35:04;;;;;;;31.23;13.65;;;;;;;-1.11;86.59;101943.72;5071773;28;20021;-74
2022/03/05 01:37:29;;;;;;;34.45;13.77;;;;;;;-1.15;86.59;101931.78;5071898;28;20036;-74
2022/03/05 01:39:55;;;;;;;34.92;15.75;;;;;;;-1.13;86.93;101940.34;5070896;28;20557;-74
2022/03/05 01:42:21;;;;;;;32.22;15.10;;;;;;;-1.16;86.83;101928.28;5071361;28;20089;-74
2022/03/05 01:44:47;;;;;;;31.55;14.77;;;;;;;-1.18;86.76;101935.41;5071493;28;20024;-74
2022/03/05 01:47:12;;;;;;;26.45;13.82;;;;;;;-1.20;86.79;101931.22;5071629;28;20103;-74
2022/03/05 01:49:38;;;;;;;30.33;13.25;;;;;;;-1.23;86.97;101934.84;5071543;28;20435;-74
2022/03/05 01:52:03;;;;;;;31.63;13.90;;;;;;;-1.25;86.91;101928.03;5071346;28;20381;-74
2022/03/05 01:54:29;;;;;;;31.17;13.10;;;;;;;-1.27;87.21;101930.72;5071372;28;20350;-74
2022/03/05 01:56:56;;;;;;;31.80;13.60;;;;;;;-1.29;87.46;101932.59;5070382;28;20070;-75
2022/03/05 01:59:22;;;;;;;33.50;15.70;;;;;;;-1.33;87.08;101928.50;5070931;28;20485;-74
2022/03/05 02:01:47;;;;;;;39.83;17.35;;;;;;;-1.36;87.63;101926.06;5070200;28;20055;-74
2022/03/05 02:04:12;;;;;;;36.35;15.38;;;;;;;-1.42;87.34;101932.47;5070949;28;20471;-74
2022/03/05 02:06:38;;;;;;;29.02;12.85;;;;;;;-1.40;87.62;101938.47;5071103;28;20047;-74
2022/03/05 02:09:03;;;;;;;35.47;15.82;;;;;;;-1.42;87.41;101955.19;5071226;28;20115;-74
2022/03/05 02:11:29;;;;;;;31.50;14.10;;;;;;;-1.46;87.79;101936.22;5071213;28;20028;-74
2022/03/05 02:13:54;;;;;;;37.03;15.48;;;;;;;-1.48;87.13;101940.72;5070846;28;20024;-74
2022/03/05 02:16:21;;;;;;;35.63;16.00;;;;;;;-1.55;87.83;101935.00;5070444;28;20036;-73
2022/03/05 02:18:48;;;;;;;33.55;13.77;;;;;;;-1.49;87.96;101939.03;5070810;28;20031;-73
2022/03/05 02:21:14;;;;;;;35.70;14.88;;;;;;;-1.49;88.30;101939.03;5071045;28;20427;-73
2022/03/05 02:23:40;;;;;;;32.28;16.20;;;;;;;-1.48;87.97;101940.72;5070842;28;20111;-73
2022/03/05 02:26:06;;;;;;;34.70;14.75;;;;;;;-1.58;88.06;101929.09;5069611;28;20123;-74
2022/03/05 02:28:33;;;;;;;29.60;14.20;;;;;;;-1.59;87.74;101930.88;5070832;28;20503;-74
2022/03/05 02:30:59;;;;;;;36.13;15.77;;;;;;;-1.59;88.78;101930.06;5070720;28;20024;-74
2022/03/05 02:33:24;;;;;;;34.90;16.88;;;;;;;-1.60;88.03;101928.34;5052506;28;20032;-74
2022/03/05 02:35:50;;;;;;;30.17;14.43;;;;;;;-1.61;88.22;101926.69;5070041;28;20060;-73
2022/03/05 02:38:17;;;;;;;41.30;16.25;;;;;;;-1.69;88.62;101913.22;5070544;28;20444;-73
2022/03/05 02:40:44;;;;;;;35.75;15.38;;;;;;;-1.64;88.19;101919.03;5070336;28;20032;-73
2022/03/05 02:43:11;;;;;;;35.08;14.77;;;;;;;-1.66;88.52;101921.72;5070587;28;20522;-74
2022/03/05 02:45:37;;;;;;;37.40;15.18;;;;;;;-1.68;88.24;101923.56;5070452;28;20111;-73
2022/03/05 02:48:04;;;;;;;29.75;14.20;;;;;;;-1.75;87.81;101911.81;5070115;28;20074;-73
2022/03/05 02:50:31;;;;;;;28.80;13.85;;;;;;;-1.72;88.89;101926.47;5070199;28;20119;-74
2022/03/05 02:52:56;;;;;;;32.00;15.05;;;;;;;-1.78;88.43;101910.22;5068843;28;20036;-74
2022/03/05 02:55:22;;;;;;;30.45;14.30;;;;;;;-1.75;88.66;101926.66;5070097;28;20040;-74
2022/03/05 02:57:47;;;;;;;32.90;14.38;;;;;;;-1.83;88.50;101922.72;5070261;28;20086;-74
2022/03/05 03:00:13;;;;;;;35.42;14.15;;;;;;;-1.84;89.29;101918.41;5069977;28;20132;-73
2022/03/05 03:02:39;;;;;;;42.75;15.65;;;;;;;-1.87;89.58;101913.34;5070078;28;20401;-74
2022/03/05 03:05:05;;;;;;;32.53;14.82;;;;;;;-1.89;89.43;101914.38;5069816;28;20067;-74
2022/03/05 03:07:31;;;;;;;35.63;15.10;;;;;;;-1.93;89.69;101898.03;5069591;28;20095;-73
2022/03/05 03:09:58;;;;;;;36.83;15.90;;;;;;;-1.87;89.42;101909.91;5069352;28;20495;-73
2022/03/05 03:12:25;;;;;;;36.92;15.75;;;;;;;-1.90;89.37;101903.09;5069886;28;20039;-74
2022/03/05 03:14:50;;;;;;;40.53;18.60;;;;;;;-1.92;90.09;101898.88;5069563;28;20040;-74
2022/03/05 03:17:17;;;;;;;34.63;14.00;;;;;;;-1.94;89.81;101904.19;5069796;28;20416;-73
2022/03/05 03:19:42;;;;;;;30.95;15.55;;;;;;;-1.94;89.72;101900.72;5069358;28;20476;-74
2022/03/05 03:22:08;;;;;;;39.22;16.30;;;;;;;-2.02;89.87;101888.97;5069906;28;20024;-74
2022/03/05 03:24:33;;;;;;;33.55;16.52;;;;;;;-2.01;89.57;101893.25;5068401;28;20035;-74
2022/03/05 03:26:59;;;;;;;35.83;15.27;;;;;;;-2.04;90.32;101903.06;5069732;28;20032;-74
2022/03/05 03:29:24;;;;;;;35.67;14.85;;;;;;;-2.09;89.55;101903.31;5069761;28;20029;-74
2022/03/05 03:31:49;;;;;;;32.53;15.15;;;;;;;-2.18;90.12;101898.59;5069766;28;20157;-74
2022/03/05 03:34:15;;;;;;;38.85;15.27;;;;;;;-2.13;90.40;101908.81;5069727;28;20033;-74
2022/03/05 03:36:40;;;;;;;32.78;15.27;;;;;;;-2.19;90.59;101896.09;5068038;28;20053;-74
2022/03/05 03:39:05;;;;;;;34.08;13.85;;;;;;;-2.15;90.33;101901.03;5069503;28;20033;-73
2022/03/05 03:41:31;;;;;;;35.50;15.60;;;;;;;-2.13;89.84;101901.81;5068279;28;20115;-74
2022/03/05 03:43:56;;;;;;;33.20;16.42;;;;;;;-2.13;90.17;101898.34;5068307;28;20055;-74
2022/03/05 03:46:21;;;;;;;37.60;13.55;;;;;;;-2.14;90.82;101899.28;5069523;28;20031;-74
2022/03/05 03:48:47;;;;;;;35.63;16.88;;;;;;;-2.16;90.77;101901.97;5069474;28;20029;-74
2022/03/05 03:51:13;;;;;;;37.40;14.88;;;;;;;-2.16;90.68;101899.38;5069591;28;20064;-74
2022/03/05 03:53:38;;;;;;;27.40;14.18;;;;;;;-2.17;90.74;101907.28;5069461;28;20032;-74
2022/03/05 03:56:04;;;;;;;45.92;16.42;;;;;;;-2.17;90.81;101909.91;5069434;28;20070;-74
2022/03/05 03:58:29;;;;;;;32.42;14.60;;;;;;;-2.30;90.51;101897.56;5069547;28;20044;-74
2022/03/05 04:00:54;;;;;;;40.88;16.63;;;;;;;-2.27;90.28;101915.66;5069486;28;20115;-74
2022/03/05 04:03:20;;;;;;;35.42;16.70;;;;;;;-2.23;90.68;101911.09;5069782;28;20033;-74
2022/03/05 04:05:45;;;;;;;37.85;16.30;;;;;;;-2.25;90.58;101911.19;5073511;28;20028;-74
2022/03/05 04:10:54;;;;;;;36.20;15.80;;;;;;;-2.20;91.10;101918.78;5072476;28;20086;-74
2022/03/05 04:13:20;;;;;;;33.70;16.55;;;;;;;-2.25;91.42;101907.75;5072895;28;20418;-74
2022/03/05 04:15:46;;;;;;;29.35;15.82;;;;;;;-2.23;91.20;101913.72;5073317;28;20035;-74
2022/03/05 04:18:11;;;;;;;36.50;14.48;;;;;;;-2.27;91.36;101910.44;5072087;28;20028;-74
2022/03/05 04:20:37;;;;;;;37.20;17.52;;;;;;;-2.29;91.78;101917.50;5072834;28;20037;-74
2022/03/05 04:23:02;;;;;;;31.25;13.85;;;;;;;-2.31;91.74;101926.38;5072925;28;20027;-74
2022/03/05 04:25:28;;;;;;;32.45;14.48;;;;;;;-2.35;91.55;101920.47;5073230;28;20032;-74
2022/03/05 04:27:54;;;;;;;42.30;16.30;;;;;;;-2.32;92.02;101925.53;5072981;28;20081;-74
2022/03/05 04:30:19;;;;;;;35.75;18.48;;;;;;;-2.34;91.66;101923.94;5072940;28;20060;-74
2022/03/05 04:32:45;;;;;;;34.25;14.40;;;;;;;-2.39;91.55;101921.56;5073094;28;20543;-73
2022/03/05 04:35:11;;;;;;;34.97;15.10;;;;;;;-2.37;90.95;101926.72;5072774;28;20431;-74
2022/03/05 04:37:37;;;;;;;31.00;15.43;;;;;;;-2.43;92.14;101928.75;5072648;28;20372;-74
2022/03/05 04:40:04;;;;;;;31.52;15.32;;;;;;;-2.39;92.05;101928.56;5071591;28;20028;-74
2022/03/05 04:42:30;;;;;;;38.67;17.77;;;;;;;-2.43;91.47;101928.75;5072236;28;20127;-74
2022/03/05 04:44:55;;;;;;;36.33;16.92;;;;;;;-2.41;92.34;101936.50;5072657;28;20104;-74
2022/03/05 04:47:21;;;;;;;38.53;16.00;;;;;;;-2.43;91.89;101939.19;5072711;28;20036;-74
2022/03/05 04:49:47;;;;;;;40.65;17.35;;;;;;;-2.44;91.57;101941.88;5072685;28;20107;-74
2022/03/05 04:52:12;;;;;;;38.72;17.02;;;;;;;-2.44;92.15;101934.03;5071171;28;20047;-74
2022/03/05 04:54:38;;;;;;;35.33;17.88;;;;;;;-2.48;92.59;101932.56;5070906;28;20033;-74
2022/03/05 04:57:03;;;;;;;32.05;14.30;;;;;;;-2.47;92.33;101939.44;5071915;28;20032;-74
2022/03/05 04:59:29;;;;;;;33.90;17.25;;;;;;;-2.58;92.27;101921.75;5072255;28;20036;-74
2022/03/05 05:01:56;;;;;;;38.60;16.30;;;;;;;-2.49;92.29;101936.94;5072257;28;20098;-74
2022/03/05 05:04:22;;;;;;;39.30;16.20;;;;;;;-2.52;92.43;101947.53;5072477;28;20020;-74
2022/03/05 05:06:47;;;;;;;35.83;16.23;;;;;;;-2.55;92.47;101950.31;5072096;28;20448;-74
2022/03/05 05:09:13;;;;;;;37.90;16.45;;;;;;;-2.57;92.64;101943.50;5072193;28;20060;-74
2022/03/05 05:11:39;;;;;;;37.13;17.23;;;;;;;-2.60;92.16;101954.09;5072016;28;20036;-74
2022/03/05 05:14:04;;;;;;;39.70;15.02;;;;;;;-2.60;93.10;101954.94;5070914;28;20085;-74
2022/03/05 05:16:30;;;;;;;41.08;16.25;;;;;;;-2.62;93.17;101953.34;5071978;28;20024;-74
2022/03/05 05:21:39;;;;;;;39.22;18.88;;;;;;;-2.73;92.76;101938.28;5071966;28;20043;-74
2022/03/05 05:24:05;;;;;;;37.95;17.83;;;;;;;-2.67;92.70;101949.22;5072021;28;20387;-74
2022/03/05 05:26:30;;;;;;;41.17;17.00;;;;;;;-2.73;93.39;101943.50;5071904;28;20533;-74
2022/03/05 05:28:55;;;;;;;41.28;19.52;;;;;;;-2.73;93.45;101952.16;5070684;28;20484;-74
2022/03/05 05:31:21;;;;;;;40.10;18.55;;;;;;;-2.73;93.28;101954.78;5070796;28;20043;-74
2022/03/05 05:33:46;;;;;;;33.53;15.63;;;;;;;-2.79;92.63;101949.88;5070501;28;20033;-74
2022/03/05 05:36:13;;;;;;;45.40;19.40;;;;;;;-2.78;93.01;101959.41;5070448;28;20609;-74
2022/03/05 05:38:39;;;;;;;35.17;17.13;;;;;;;-2.75;93.06;101972.31;5071830;28;20119;-74
2022/03/05 05:41:05;;;;;;;34.90;17.70;;;;;;;-2.72;93.61;101971.31;5071717;28;20116;-74
2022/03/05 05:43:30;;;;;;;37.58;15.48;;;;;;;-2.72;94.25;101966.91;5070407;28;20463;-76
2022/03/05 05:45:55;;;;;;;37.65;18.38;;;;;;;-2.72;93.50;101966.06;5071812;28;20040;-74
2022/03/05 05:48:21;;;;;;;41.30;17.33;;;;;;;-2.70;93.20;101975.53;5071605;28;20028;-74
2022/03/05 05:50:46;;;;;;;33.75;15.70;;;;;;;-2.72;93.08;101968.69;5053461;28;20020;-74
2022/03/05 05:53:12;;;;;;;36.33;15.68;;;;;;;-2.77;93.25;101966.31;5070898;28;20111;-74
2022/03/05 05:55:37;;;;;;;39.80;19.20;;;;;;;-2.76;92.89;101973.22;5071105;28;20047;-75
2022/03/05 05:58:02;;;;;;;41.95;15.95;;;;;;;-2.74;93.67;101970.53;5071274;28;20064;-74
2022/03/05 06:00:28;;;;;;;39.75;18.33;;;;;;;-2.75;92.90;101966.22;5071333;28;20021;-74
2022/03/05 06:02:53;;;;;;;39.53;19.15;;;;;;;-2.76;93.40;101964.53;5071505;28;20028;-74
2022/03/05 06:05:19;;;;;;;40.95;17.42;;;;;;;-2.74;92.93;101968.75;5071124;28;20059;-74
2022/03/05 06:07:44;;;;;;;39.45;20.58;;;;;;;-2.79;92.84;101951.66;5071350;28;20493;-74
2022/03/05 06:10:10;;;;;;;42.28;19.20;;;;;;;-2.73;92.90;101961.75;5071064;28;20029;-74
2022/03/05 06:12:36;;;;;;;33.85;16.45;;;;;;;-2.74;93.42;101954.88;5070602;28;20474;-74
2022/03/05 06:15:03;;;;;;;39.15;18.02;;;;;;;-2.75;92.82;101955.78;5071024;28;20033;-74
2022/03/05 06:17:29;;;;;;;38.38;18.95;;;;;;;-2.77;93.44;101958.50;5070992;28;20028;-74
2022/03/05 06:19:54;;;;;;;35.55;16.10;;;;;;;-2.72;93.00;101966.91;5070993;28;20123;-74
2022/03/05 06:22:19;;;;;;;37.03;16.33;;;;;;;-2.72;93.02;101956.47;5070986;28;20036;-74
2022/03/05 06:24:45;;;;;;;42.95;20.95;;;;;;;-2.70;93.50;101970.28;5070459;28;20495;-74
2022/03/05 06:27:10;;;;;;;38.22;15.45;;;;;;;-2.69;93.02;101968.53;5070356;28;20565;-74
2022/03/05 06:29:36;;;;;;;34.55;15.77;;;;;;;-2.76;93.44;101962.78;5070779;28;20400;-74
2022/03/05 06:32:02;;;;;;;37.38;17.85;;;;;;;-2.68;93.48;101973.63;5070753;28;20419;-74
2022/03/05 06:34:27;;;;;;;41.30;19.40;;;;;;;-2.71;93.31;101965.97;5070527;28;20041;-74
2022/03/05 06:36:54;;;;;;;29.13;16.10;;;;;;;-2.64;93.53;101963.91;5052661;28;20186;-74
2022/03/05 06:39:20;;;;;;;36.30;17.63;;;;;;;-2.66;92.72;101961.34;5070507;28;20438;-74
2022/03/05 06:41:45;;;;;;;39.97;18.10;;;;;;;-2.61;92.80;101970.72;5070638;28;20052;-74
2022/03/05 06:44:10;;;;;;;39.53;18.98;;;;;;;-2.60;93.17;101968.00;5070484;28;20081;-74
2022/03/05 06:46:36;;;;;;;43.83;21.30;;;;;;;-2.57;93.43;101967.81;5052625;28;20032;-74
2022/03/05 06:49:02;;;;;;;39.45;19.02;;;;;;;-2.40;92.73;101974.75;5069080;28;20032;-74
2022/03/05 06:51:27;;;;;;;44.53;20.65;;;;;;;-2.17;93.27;101978.72;5070173;28;20477;-74
2022/03/05 06:53:52;;;;;;;44.08;19.92;;;;;;;-2.01;92.38;101963.84;5070874;28;20028;-74
2022/03/05 06:56:18;;;;;;;36.42;16.92;;;;;;;-1.62;91.83;101979.94;5069850;28;20067;-74
2022/03/05 06:58:43;;;;;;;42.30;19.55;;;;;;;-1.30;90.12;101983.25;5070348;28;20146;-74
2022/03/05 07:01:09;;;;;;;43.53;17.52;;;;;;;-1.33;89.17;101986.06;5070217;28;20025;-75
2022/03/05 07:03:34;;;;;;;36.13;17.65;;;;;;;-1.49;89.44;101985.25;5069882;28;20116;-74
2022/03/05 07:05:59;;;;;;;41.00;20.52;;;;;;;-1.59;89.31;101990.22;5070078;28;20104;-73
2022/03/05 07:08:25;;;;;;;36.30;17.80;;;;;;;-1.66;89.15;101987.09;5069853;28;20562;-76
2022/03/05 07:10:50;;;;;;;35.50;14.95;;;;;;;-1.62;89.52;101990.41;5068733;28;20103;-73
2022/03/05 07:13:15;;;;;;;38.95;18.38;;;;;;;-1.57;89.60;101996.19;5069711;28;20459;-76
2022/03/05 07:15:41;;;;;;;39.70;17.67;;;;;;;-1.57;89.61;102001.44;5069655;28;20037;-73
2022/03/05 07:18:06;;;;;;;39.72;16.45;;;;;;;-1.59;89.52;102006.75;5069896;28;20067;-74
2022/03/05 07:20:31;;;;;;;41.47;18.60;;;;;;;-1.56;89.81;102003.09;5068607;28;20036;-76
2022/03/05 07:22:57;;;;;;;37.55;16.20;;;;;;;-1.40;89.60;102010.91;5051840;28;20042;-73
2022/03/05 07:25:23;;;;;;;50.35;20.38;;;;;;;-1.29;89.23;102010.25;5069511;28;20068;-73
2022/03/05 07:27:48;;;;;;;41.03;19.08;;;;;;;-1.30;88.96;102017.28;5070007;28;20025;-74
2022/03/05 07:30:14;;;;;;;40.20;17.92;;;;;;;-1.25;88.62;102009.16;5068010;28;20070;-74
2022/03/05 07:32:39;;;;;;;39.75;16.83;;;;;;;-1.14;88.47;102002.34;5069264;28;20023;-74
2022/03/05 07:35:06;;;;;;;57.22;20.58;;;;;;;-1.15;88.56;102013.75;5069312;28;20932;-76
2022/03/05 07:37:32;;;;;;;39.53;17.40;;;;;;;-1.13;88.47;102013.63;5050537;28;20381;-76
2022/03/05 07:39:58;;;;;;;35.80;18.50;;;;;;;-1.12;88.43;102004.88;5068162;28;20039;-76
2022/03/05 07:42:23;;;;;;;36.55;17.67;;;;;;;-0.99;88.03;102002.34;5069475;28;20452;-76
2022/03/05 07:44:49;;;;;;;35.55;17.02;;;;;;;-0.76;87.84;102011.41;5069490;28;20059;-76
2022/03/05 07:47:15;;;;;;;31.63;17.48;;;;;;;-0.60;87.11;102017.41;5069498;28;20043;-76
2022/03/05 07:49:40;;;;;;;51.25;20.42;;;;;;;-0.55;86.48;101996.13;5069153;28;20819;-76
2022/03/05 07:52:06;;;;;;;40.22;16.73;;;;;;;-0.38;85.59;102003.78;5067950;28;20047;-76
2022/03/05 07:54:31;;;;;;;43.67;19.15;;;;;;;-0.31;86.08;102017.34;5068073;28;20025;-76
2022/03/05 07:56:57;;;;;;;44.75;18.92;;;;;;;-0.10;85.96;102012.53;5069472;28;20040;-76
2022/03/05 07:59:22;;;;;;;40.88;17.98;;;;;;;0.29;84.65;102016.97;5069443;28;20476;-76
2022/03/05 08:01:48;;;;;;;43.50;20.27;;;;;;;0.73;82.47;102021.00;5069429;28;20074;-76
2022/03/05 08:04:13;;;;;;;41.13;19.60;;;;;;;0.86;81.46;102024.50;5068017;28;20046;-76
2022/03/05 08:06:39;;;;;;;38.85;17.45;;;;;;;0.91;81.29;102016.28;5069358;28;20036;-76
2022/03/05 08:09:04;;;;;;;42.75;17.48;;;;;;;1.29;80.88;102028.59;5069344;28;20082;-76
2022/03/05 08:11:30;;;;;;;40.65;18.00;;;;;;;1.61;80.14;102031.56;5069204;28;20033;-76
2022/03/05 08:13:55;;;;;;;36.75;17.83;;;;;;;1.87;79.76;102023.59;5069067;28;20028;-76
2022/03/05 08:16:20;;;;;;;37.75;19.30;;;;;;;2.15;78.01;102033.81;5068805;28;20024;-76
2022/03/05 08:18:46;;;;;;;38.15;17.65;;;;;;;2.19;76.11;102037.88;5067847;28;20472;-76
2022/03/05 08:21:11;;;;;;;35.03;16.45;;;;;;;2.25;76.20;102035.75;5069259;28;20112;-80
2022/03/05 08:23:36;;;;;;;38.42;17.27;;;;;;;2.12;75.16;102035.78;5068016;28;20032;-77
2022/03/05 08:26:02;;;;;;;37.42;17.92;;;;;;;1.96;75.23;102036.06;5069011;28;20147;-74
2022/03/05 08:28:28;;;;;;;35.85;17.55;;;;;;;1.78;76.83;102034.78;5068642;28;20032;-76
2022/03/05 08:30:53;;;;;;;36.92;18.20;;;;;;;1.65;77.55;102032.19;5069045;28;20067;-73
2022/03/05 08:33:21;;;;;;;39.05;17.40;;;;;;;1.56;78.08;102038.94;5065926;28;20034;-73
2022/03/05 08:35:47;;;;;;;45.70;20.05;;;;;;;1.47;78.69;102039.59;5063654;28;20057;-74
2022/03/05 08:38:12;;;;;;;34.58;16.55;;;;;;;1.43;78.79;102038.13;5064892;28;20039;-74
2022/03/05 08:40:38;;;;;;;42.17;21.55;;;;;;;1.39;79.22;102029.63;5065008;28;20111;-73
2022/03/05 08:43:03;;;;;;;37.15;17.52;;;;;;;1.43;79.40;102036.31;5064992;28;20476;-73
2022/03/05 08:45:29;;;;;;;41.47;18.42;;;;;;;1.51;79.51;102041.88;5064875;28;20028;-74
2022/03/05 08:47:55;;;;;;;37.05;16.67;;;;;;;1.58;79.37;102041.47;5064595;28;20027;-74
2022/03/05 08:50:20;;;;;;;39.97;15.80;;;;;;;1.63;78.58;102037.56;5067644;28;20036;-75
2022/03/05 08:52:46;;;;;;;40.30;18.38;;;;;;;1.64;78.95;102038.41;5068690;28;20035;-73
2022/03/05 08:55:13;;;;;;;40.40;18.30;;;;;;;1.68;78.97;102034.63;5067137;28;20028;-73
2022/03/05 08:57:39;;;;;;;39.17;15.80;;;;;;;1.74;78.46;102034.16;5068062;28;20472;-73
2022/03/05 09:00:08;;;;;;;37.10;18.15;;;;;;;1.82;77.88;102039.72;5068328;28;20487;-73
2022/03/05 09:02:34;;;;;;;36.78;16.10;;;;;;;1.95;79.30;102031.78;5068113;28;20020;-73
2022/03/05 09:04:59;;;;;;;36.83;19.10;;;;;;;2.04;76.39;102030.25;5069464;28;20501;-73
2022/03/05 09:07:25;;;;;;;36.83;17.17;;;;;;;2.02;76.68;102035.66;5072269;28;20081;-73
2022/03/05 09:09:50;;;;;;;34.65;17.77;;;;;;;2.07;77.72;102025.63;5072166;28;20423;-73
2022/03/05 09:12:16;;;;;;;37.50;17.00;;;;;;;2.17;77.49;102023.16;5072129;28;20032;-73
2022/03/05 09:14:41;;;;;;;42.70;18.02;;;;;;;2.18;76.13;102027.47;5072213;28;20056;-73
2022/03/05 09:17:06;;;;;;;42.38;20.30;;;;;;;2.15;76.27;102018.00;5070401;28;20029;-73
2022/03/05 09:19:32;;;;;;;35.15;19.42;;;;;;;2.32;78.58;102023.81;5071746;28;20020;-74
2022/03/05 09:21:57;;;;;;;37.05;19.52;;;;;;;2.48;77.60;102026.16;5072107;28;20123;-73
2022/03/05 09:24:23;;;;;;;38.97;17.70;;;;;;;2.57;76.74;102026.31;5071676;28;20021;-73
2022/03/05 09:26:48;;;;;;;43.80;19.85;;;;;;;2.72;75.42;102021.66;5071775;28;20093;-73
2022/03/05 09:29:14;;;;;;;38.75;16.73;;;;;;;2.76;74.87;102012.56;5071605;28;20111;-73
2022/03/05 09:31:40;;;;;;;40.72;18.23;;;;;;;2.87;74.87;102024.09;5071649;28;20471;-73
2022/03/05 09:34:06;;;;;;;40.38;17.98;;;;;;;2.84;74.18;102017.25;5071063;28;20037;-74
2022/03/05 09:36:31;;;;;;;37.92;16.98;;;;;;;2.85;74.89;102018.94;5070150;28;20041;-74
2022/03/05 09:38:57;;;;;;;37.25;18.60;;;;;;;2.87;74.43;102016.19;5071633;28;20040;-74
2022/03/05 09:41:22;;;;;;;33.45;14.32;;;;;;;2.96;75.01;102018.97;5071482;28;20029;-73
2022/03/05 09:43:48;;;;;;;45.92;17.80;;;;;;;3.11;74.47;102018.72;5071612;28;20524;-75
2022/03/05 09:46:18;;;;;;;39.33;17.98;;;;;;;3.21;73.59;102014.41;5071590;28;20441;-73
2022/03/05 09:48:44;;;;;;;35.92;17.83;;;;;;;3.29;73.69;102017.28;5071687;28;20035;-73
2022/03/05 09:51:09;;;;;;;39.95;17.40;;;;;;;3.45;73.48;102016.91;5071582;28;20040;-74
2022/03/05 09:53:35;;;;;;;34.38;16.20;;;;;;;3.54;72.02;102018.84;5071480;28;20367;-74
2022/03/05 09:56:00;;;;;;;40.20;19.52;;;;;;;3.59;72.60;102029.88;5071369;28;20066;-74
2022/03/05 09:58:26;;;;;;;37.20;17.98;;;;;;;3.67;73.69;102014.25;5071232;28;20124;-74
2022/03/05 10:00:51;;;;;;;43.08;19.42;;;;;;;3.82;71.31;102021.88;5069131;28;20036;-74
2022/03/05 10:03:18;;;;;;;39.10;16.40;;;;;;;3.94;70.80;102020.91;5071230;28;20103;-76
2022/03/05 10:05:43;;;;;;;37.38;17.95;;;;;;;3.98;69.78;102022.31;5071176;28;20052;-74
2022/03/05 10:08:15;;;;;;;39.10;17.33;;;;;;;3.95;70.38;102020.75;5071011;28;20697;-74
2022/03/05 10:10:46;;;;;;;;;;;;;;;4.03;72.28;102021.94;5071360;28;20028;-74
2022/03/05 10:13:26;;;;;;;33.17;16.63;;;;;;;4.15;70.39;102031.53;5070887;28;19958;-74
2022/03/05 10:15:54;;;;;;;39.45;19.83;;;;;;;4.28;70.71;102026.06;5070500;28;20051;-74
2022/03/05 10:18:27;;;;;;;36.70;16.73;;;;;;;4.43;69.44;102024.81;5070496;28;20498;-73
2022/03/05 10:20:53;;;;;;;32.80;13.98;;;;;;;4.51;68.72;102014.44;5070415;28;20476;-74
2022/03/05 10:23:19;;;;;;;35.00;15.77;;;;;;;4.55;66.61;102021.13;5070605;28;20108;-75
2022/03/05 10:25:47;;;;;;;31.10;15.85;;;;;;;4.51;66.76;102017.09;5069929;28;20044;-74
2022/03/05 10:28:20;;;;;;;36.72;19.00;;;;;;;4.56;67.71;102020.19;5070662;28;20028;-73
2022/03/05 10:30:46;;;;;;;32.40;16.23;;;;;;;4.66;67.61;102004.38;5070460;28;20071;-76
2022/03/05 10:33:35;;;;;;;39.30;17.10;;;;;;;4.80;66.85;102017.28;5070287;28;20493;-73
2022/03/05 10:36:18;;;;;;;39.92;19.65;;;;;;;4.83;66.99;102010.88;5070105;28;20059;-73
2022/03/05 10:38:48;;;;;;;37.67;16.73;;;;;;;4.95;67.83;102023.06;5070727;28;20020;-75
2022/03/05 10:41:17;;;;;;;38.58;16.15;;;;;;;5.08;66.79;102020.19;5070212;28;20051;-74
2022/03/05 10:43:45;;;;;;;34.78;16.67;;;;;;;5.25;65.21;102016.09;5070540;28;20024;-73
2022/03/05 10:46:10;;;;;;;33.53;17.10;;;;;;;5.28;63.54;102016.66;5070438;28;20082;-74
2022/03/05 10:48:41;;;;;;;34.42;16.38;;;;;;;5.21;62.86;102010.25;5070441;28;20055;-73
2022/03/05 10:51:18;;;;;;;38.42;16.95;;;;;;;5.23;65.19;102015.41;5070493;28;20024;-74
2022/03/05 10:53:46;;;;;;;34.30;17.52;;;;;;;5.30;64.73;102019.19;5069010;28;20476;-74
2022/03/05 10:56:33;;;;;;;35.55;16.38;;;;;;;5.41;63.54;102026.19;5070189;28;20139;-73
2022/03/05 10:59:06;;;;;;;32.28;16.42;;;;;;;5.26;62.60;102015.94;5070257;28;20031;-73
2022/03/05 11:01:32;;;;;;;34.38;14.07;;;;;;;5.24;61.84;102023.22;5069964;28;20051;-73
2022/03/05 11:03:59;;;;;;;40.47;18.42;;;;;;;5.31;61.98;102022.66;5068573;28;20021;-73
2022/03/05 11:06:25;;;;;;;35.20;17.80;;;;;;;5.41;62.06;102024.38;5069868;28;20028;-73
2022/03/05 11:08:51;;;;;;;32.60;15.48;;;;;;;5.46;62.27;102022.16;5070066;28;20507;-73
2022/03/05 11:11:18;;;;;;;30.48;13.25;;;;;;;5.49;61.50;102019.25;5069939;28;20028;-73